Time;durP1;ratioP1;P1;durP2;ratioP2;P2;SDS_P1;SDS_P2;PMS_P1;PMS_P2;Temp;Humidity;BMP_temperature;BMP_pressure;BME280_temperature;BME280_humidity;BME280_pressure;Samples;Min_cycle;Max_cycle;Signal;HPM_P1;HPM_P2
2023/05/02 00:01:55;;;;;;;2.65;2.45;;;;;;;;;;4942433;28;20055;-79
2023/05/02 00:04:20;;;;;;;3.80;2.65;;;;;;;;;;4940239;28;20121;-80
2023/05/02 00:06:46;;;;;;;3.45;2.63;;;;;;;;;;4950866;28;20035;-80
2023/05/02 00:09:12;;;;;;;2.90;1.95;;;;;;;;;;4950226;28;20047;-79
2023/05/02 00:11:37;;;;;;;3.25;2.80;;;;;;;;;;4927360;28;20030;-79
2023/05/02 00:14:03;;;;;;;5.10;2.58;;;;;;;;;;4937758;28;20716;-80
2023/05/02 00:16:28;;;;;;;2.75;2.17;;;;;;;;;;4942259;28;20038;-79
2023/05/02 00:18:54;;;;;;;3.10;2.72;;;;;;;;;;4957102;28;20038;-79
2023/05/02 00:21:19;;;;;;;3.20;2.58;;;;;;;;;;4949439;28;20046;-80
2023/05/02 00:23:44;;;;;;;3.22;2.50;;;;;;;;;;4942969;28;20046;-79
2023/05/02 00:26:10;;;;;;;1.65;1.55;;;;;;;;;;4942985;28;20482;-79
2023/05/02 00:28:35;;;;;;;3.10;1.95;;;;;;;;;;4952404;28;20049;-79
2023/05/02 00:31:01;;;;;;;4.45;2.70;;;;;;;;;;4943725;28;20054;-80
2023/05/02 00:33:26;;;;;;;2.45;1.77;;;;;;;;;;4958873;28;20554;-79
2023/05/02 00:35:52;;;;;;;2.42;2.10;;;;;;;;;;4954088;28;20039;-79
2023/05/02 00:38:17;;;;;;;2.65;1.88;;;;;;;;;;4952536;28;20543;-79
2023/05/02 00:40:46;;;;;;;5.43;3.28;;;;;;;;;;4943840;28;20474;-79
2023/05/02 00:43:12;;;;;;;2.88;2.38;;;;;;;;;;4951939;28;20089;-79
2023/05/02 00:45:42;;;;;;;6.00;3.20;;;;;;;;;;4946256;28;20552;-79
2023/05/02 00:48:08;;;;;;;4.13;2.55;;;;;;;;;;4932543;28;20046;-80
2023/05/02 00:50:39;;;;;;;2.92;2.47;;;;;;;;;;4949616;28;20053;-79
2023/05/02 00:53:05;;;;;;;4.53;3.55;;;;;;;;;;4933821;28;20118;-79
2023/05/02 00:55:32;;;;;;;1.83;1.60;;;;;;;;;;4953905;28;20085;-77
2023/05/02 00:57:59;;;;;;;3.53;3.20;;;;;;;;;;4944199;28;20086;-77
2023/05/02 01:00:32;;;;;;;3.80;2.50;;;;;;;;;;4940702;28;20133;-78
2023/05/02 01:03:19;;;;;;;3.35;2.00;;;;;;;;;;4953189;28;20097;-77
2023/05/02 01:06:09;;;;;;;4.10;3.10;;;;;;;;;;4941201;28;20073;-78
2023/05/02 01:08:43;;;;;;;4.13;3.53;;;;;;;;;;4938843;28;20043;-78
2023/05/02 01:11:20;;;;;;;4.20;2.95;;;;;;;;;;4939783;28;20058;-77
2023/05/02 01:13:46;;;;;;;5.97;3.08;;;;;;;;;;4934938;28;20038;-77
2023/05/02 01:16:13;;;;;;;2.95;1.90;;;;;;;;;;4952484;28;20046;-79
2023/05/02 01:18:41;;;;;;;4.03;3.38;;;;;;;;;;4931920;28;20050;-79
2023/05/02 01:21:09;;;;;;;5.18;3.35;;;;;;;;;;4933193;28;20431;-79
2023/05/02 01:23:58;;;;;;;3.22;2.88;;;;;;;;;;4948472;28;20043;-79
2023/05/02 01:26:42;;;;;;;2.35;2.08;;;;;;;;;;4947503;28;20126;-80
2023/05/02 01:29:10;;;;;;;3.72;2.95;;;;;;;;;;4934374;28;20117;-80
2023/05/02 01:31:38;;;;;;;5.10;3.33;;;;;;;;;;4953768;28;20051;-79
2023/05/02 01:34:08;;;;;;;4.45;2.65;;;;;;;;;;4942496;28;20039;-79
2023/05/02 01:36:36;;;;;;;4.50;3.10;;;;;;;;;;4954892;28;20073;-79
2023/05/02 01:39:03;;;;;;;3.58;3.28;;;;;;;;;;4939246;28;20522;-80
2023/05/02 01:41:31;;;;;;;2.03;1.83;;;;;;;;;;4933665;28;20057;-79
2023/05/02 01:43:58;;;;;;;4.88;2.97;;;;;;;;;;4949447;28;20614;-79
2023/05/02 01:46:31;;;;;;;2.85;2.58;;;;;;;;;;4952693;28;20043;-80
2023/05/02 01:48:59;;;;;;;3.42;2.63;;;;;;;;;;4954195;28;20085;-80
2023/05/02 01:51:30;;;;;;;3.67;3.17;;;;;;;;;;4949852;28;20038;-80
2023/05/02 01:53:58;;;;;;;2.80;2.42;;;;;;;;;;4932369;28;20061;-80
2023/05/02 01:56:24;;;;;;;5.07;3.63;;;;;;;;;;4949431;28;20041;-80
2023/05/02 01:58:52;;;;;;;3.78;3.30;;;;;;;;;;4955835;28;20038;-80
2023/05/02 02:01:19;;;;;;;3.35;2.65;;;;;;;;;;4951141;28;20054;-80
2023/05/02 02:03:45;;;;;;;2.80;2.60;;;;;;;;;;4951239;28;20039;-79
2023/05/02 02:06:13;;;;;;;5.78;4.05;;;;;;;;;;4939343;28;20467;-79
2023/05/02 02:08:38;;;;;;;7.65;3.80;;;;;;;;;;4942607;28;20041;-78
2023/05/02 02:11:09;;;;;;;3.90;2.97;;;;;;;;;;4946115;28;20144;-79
2023/05/02 02:13:39;;;;;;;5.32;3.90;;;;;;;;;;4940551;28;20045;-79
2023/05/02 02:16:09;;;;;;;6.20;3.35;;;;;;;;;;4947262;28;20047;-79
2023/05/02 02:18:37;;;;;;;4.78;3.33;;;;;;;;;;4945112;28;20503;-79
2023/05/02 02:21:06;;;;;;;3.28;2.80;;;;;;;;;;4941205;28;20129;-79
2023/05/02 02:23:34;;;;;;;5.13;2.85;;;;;;;;;;4950460;28;20042;-78
2023/05/02 02:26:01;;;;;;;2.20;1.80;;;;;;;;;;4951543;28;20038;-78
2023/05/02 02:28:27;;;;;;;4.68;3.75;;;;;;;;;;4950196;28;20043;-78
2023/05/02 02:30:52;;;;;;;7.63;4.10;;;;;;;;;;4956264;28;20419;-78
2023/05/02 02:33:19;;;;;;;6.22;3.80;;;;;;;;;;4929017;28;20070;-79
2023/05/02 02:35:52;;;;;;;4.00;2.90;;;;;;;;;;4931610;28;20097;-78
2023/05/02 02:38:21;;;;;;;5.13;3.80;;;;;;;;;;4946295;28;20693;-78
2023/05/02 02:41:15;;;;;;;3.42;2.40;;;;;;;;;;4946993;28;20085;-78
2023/05/02 02:43:59;;;;;;;3.65;2.90;;;;;;;;;;4911007;28;20035;-78
2023/05/02 02:47:02;;;;;;;7.80;4.20;;;;;;;;;;4943124;28;20038;-78
2023/05/02 02:50:08;;;;;;;5.65;3.55;;;;;;;;;;4950394;28;20126;-78
2023/05/02 02:52:49;;;;;;;4.05;2.90;;;;;;;;;;4894113;28;20048;-78
2023/05/02 02:55:29;;;;;;;3.17;2.88;;;;;;;;;;4947801;28;20046;-78
2023/05/02 02:58:00;;;;;;;8.27;2.87;;;;;;;;;;4937494;28;20121;-78
2023/05/02 03:00:27;;;;;;;2.47;2.20;;;;;;;;;;4951565;28;20114;-78
2023/05/02 03:02:54;;;;;;;4.55;2.92;;;;;;;;;;4934208;28;20046;-78
2023/05/02 03:05:21;;;;;;;5.95;3.40;;;;;;;;;;4947149;28;20376;-78
2023/05/02 03:07:46;;;;;;;4.35;3.40;;;;;;;;;;4954123;28;20117;-77
2023/05/02 03:10:12;;;;;;;5.93;3.65;;;;;;;;;;4951130;28;20174;-77
2023/05/02 03:12:38;;;;;;;4.05;3.05;;;;;;;;;;4930707;28;20439;-78
2023/05/02 03:15:10;;;;;;;4.25;2.50;;;;;;;;;;4951214;28;20391;-78
2023/05/02 03:17:36;;;;;;;2.53;2.08;;;;;;;;;;4898893;28;21003;-79
2023/05/02 03:20:03;;;;;;;2.55;2.25;;;;;;;;;;4929900;28;20074;-79
2023/05/02 03:22:29;;;;;;;7.00;4.60;;;;;;;;;;4931220;28;20047;-79
2023/05/02 03:24:54;;;;;;;5.97;4.05;;;;;;;;;;4932648;28;20039;-78
2023/05/02 03:27:19;;;;;;;6.47;3.75;;;;;;;;;;4935345;28;20781;-79
2023/05/02 03:29:45;;;;;;;4.05;3.13;;;;;;;;;;4920271;28;20050;-79
2023/05/02 03:32:10;;;;;;;6.30;3.75;;;;;;;;;;4925471;28;20047;-78
2023/05/02 03:34:36;;;;;;;4.93;3.22;;;;;;;;;;4934835;28;20039;-78
2023/05/02 03:37:01;;;;;;;7.60;5.07;;;;;;;;;;4937027;28;20039;-79
2023/05/02 03:39:27;;;;;;;5.03;3.65;;;;;;;;;;4933984;28;20245;-79
2023/05/02 03:41:52;;;;;;;6.70;4.20;;;;;;;;;;4934312;28;20121;-79
2023/05/02 03:44:17;;;;;;;6.78;4.65;;;;;;;;;;4898649;28;20543;-78
2023/05/02 03:46:43;;;;;;;5.80;4.35;;;;;;;;;;4932960;28;20047;-79
2023/05/02 03:49:08;;;;;;;5.50;3.95;;;;;;;;;;4915791;28;20043;-79
2023/05/02 03:51:34;;;;;;;4.07;3.10;;;;;;;;;;4916410;29;20440;-79
2023/05/02 03:54:01;;;;;;;9.02;4.78;;;;;;;;;;4931201;28;20043;-79
2023/05/02 03:56:27;;;;;;;4.13;2.95;;;;;;;;;;4931862;28;20130;-80
2023/05/02 03:58:52;;;;;;;9.35;5.43;;;;;;;;;;4908204;28;20125;-79
2023/05/02 04:01:18;;;;;;;4.43;3.03;;;;;;;;;;4937275;28;20142;-79
2023/05/02 04:03:43;;;;;;;9.07;4.88;;;;;;;;;;4929606;28;20039;-80
2023/05/02 04:06:09;;;;;;;3.53;3.15;;;;;;;;;;4916911;28;20040;-79
2023/05/02 04:08:35;;;;;;;6.57;4.05;;;;;;;;;;4935165;28;20035;-79
2023/05/02 04:11:01;;;;;;;7.18;4.53;;;;;;;;;;4935176;28;20039;-79
2023/05/02 04:13:28;;;;;;;3.05;2.75;;;;;;;;;;4915259;28;20106;-80
2023/05/02 04:15:53;;;;;;;2.25;1.80;;;;;;;;;;4925447;28;20050;-78
2023/05/02 04:18:19;;;;;;;8.07;4.43;;;;;;;;;;4937229;28;20051;-77
2023/05/02 04:20:44;;;;;;;7.85;4.10;;;;;;;;;;4938581;28;20031;-79
2023/05/02 04:23:10;;;;;;;5.03;2.92;;;;;;;;;;4924304;28;20180;-79
2023/05/02 04:25:35;;;;;;;8.00;4.20;;;;;;;;;;4925668;28;20043;-78
2023/05/02 04:28:01;;;;;;;5.95;3.92;;;;;;;;;;4903264;28;20052;-79
2023/05/02 04:30:26;;;;;;;3.88;2.95;;;;;;;;;;4940162;28;20039;-78
2023/05/02 04:32:52;;;;;;;6.88;4.28;;;;;;;;;;4935692;28;20067;-78
2023/05/02 04:35:17;;;;;;;6.80;4.50;;;;;;;;;;4933181;28;20043;-79
2023/05/02 04:37:43;;;;;;;6.68;3.17;;;;;;;;;;4933472;28;20433;-79
2023/05/02 04:40:09;;;;;;;6.18;3.80;;;;;;;;;;4913315;28;20054;-78
2023/05/02 04:42:34;;;;;;;5.22;4.00;;;;;;;;;;4893953;28;20048;-78
2023/05/02 04:45:00;;;;;;;9.55;4.63;;;;;;;;;;4933613;28;20039;-78
2023/05/02 04:47:25;;;;;;;6.03;3.88;;;;;;;;;;4936015;28;20047;-78
2023/05/02 04:49:51;;;;;;;7.43;4.60;;;;;;;;;;4932825;28;20058;-77
2023/05/02 04:52:17;;;;;;;7.75;4.88;;;;;;;;;;4933113;28;20050;-77
2023/05/02 04:54:42;;;;;;;2.67;1.63;;;;;;;;;;4914037;28;20115;-77
2023/05/02 04:57:09;;;;;;;5.38;3.40;;;;;;;;;;4928129;28;20067;-79
2023/05/02 04:59:34;;;;;;;4.20;3.17;;;;;;;;;;4926306;28;20069;-78
2023/05/02 05:02:00;;;;;;;3.92;3.13;;;;;;;;;;4931841;28;20600;-78
2023/05/02 05:04:25;;;;;;;10.40;3.67;;;;;;;;;;4934709;28;20043;-77
2023/05/02 05:06:50;;;;;;;5.63;3.65;;;;;;;;;;4934163;28;20031;-76
2023/05/02 05:09:16;;;;;;;8.10;5.97;;;;;;;;;;4898575;28;20038;-77
2023/05/02 05:11:42;;;;;;;8.85;5.72;;;;;;;;;;4926083;28;20044;-77
2023/05/02 05:14:08;;;;;;;4.70;2.80;;;;;;;;;;4928784;28;20035;-77
2023/05/02 05:16:33;;;;;;;6.82;5.38;;;;;;;;;;4934021;28;20086;-77
2023/05/02 05:18:59;;;;;;;6.38;3.92;;;;;;;;;;4916631;28;20586;-77
2023/05/02 05:21:26;;;;;;;10.63;6.55;;;;;;;;;;4929719;28;20062;-77
2023/05/02 05:23:52;;;;;;;9.02;5.47;;;;;;;;;;4908471;28;20051;-78
2023/05/02 05:26:18;;;;;;;6.05;4.47;;;;;;;;;;4931944;28;20449;-78
2023/05/02 05:28:43;;;;;;;6.00;4.40;;;;;;;;;;4927708;28;20042;-77
2023/05/02 05:31:11;;;;;;;10.55;6.22;;;;;;;;;;4936681;28;20409;-79
2023/05/02 05:33:37;;;;;;;4.80;3.15;;;;;;;;;;4932209;28;20508;-80
2023/05/02 05:36:07;;;;;;;8.70;6.05;;;;;;;;;;4926621;28;20035;-79
2023/05/02 05:38:33;;;;;;;9.07;5.75;;;;;;;;;;4907594;28;20056;-79
2023/05/02 05:40:58;;;;;;;5.43;4.03;;;;;;;;;;4934427;28;20102;-79
2023/05/02 05:43:25;;;;;;;7.80;5.75;;;;;;;;;;4934743;28;20361;-79
2023/05/02 05:45:54;;;;;;;4.78;3.75;;;;;;;;;;4933155;28;20038;-79
2023/05/02 05:48:19;;;;;;;4.82;3.85;;;;;;;;;;4931727;28;20043;-79
2023/05/02 05:50:45;;;;;;;7.13;4.85;;;;;;;;;;4915920;28;20041;-79
2023/05/02 05:53:11;;;;;;;9.23;4.93;;;;;;;;;;4936222;28;20051;-79
2023/05/02 05:55:37;;;;;;;9.48;6.43;;;;;;;;;;4932258;28;20062;-79
2023/05/02 05:58:03;;;;;;;9.18;6.72;;;;;;;;;;4931928;28;20031;-79
2023/05/02 06:00:29;;;;;;;7.32;5.35;;;;;;;;;;4931700;28;20051;-79
2023/05/02 06:02:54;;;;;;;4.50;2.90;;;;;;;;;;4930444;28;20779;-79
2023/05/02 06:05:20;;;;;;;9.95;6.75;;;;;;;;;;4914512;28;20184;-79
2023/05/02 06:07:45;;;;;;;6.53;4.35;;;;;;;;;;4930515;28;20820;-79
2023/05/02 06:10:11;;;;;;;9.18;5.90;;;;;;;;;;4930664;28;20042;-79
2023/05/02 06:12:36;;;;;;;7.55;6.00;;;;;;;;;;4932821;28;20377;-79
2023/05/02 06:15:02;;;;;;;13.02;7.18;;;;;;;;;;4940203;28;20063;-79
2023/05/02 06:17:27;;;;;;;5.90;4.10;;;;;;;;;;4932290;28;21512;-79
2023/05/02 06:19:52;;;;;;;14.35;7.85;;;;;;;;;;4932596;28;20045;-79
2023/05/02 06:22:18;;;;;;;6.43;4.55;;;;;;;;;;4952730;28;20046;-79
2023/05/02 06:24:43;;;;;;;11.77;8.45;;;;;;;;;;4943203;28;20039;-79
2023/05/02 06:27:09;;;;;;;7.88;4.72;;;;;;;;;;4942799;28;20081;-79
2023/05/02 06:29:34;;;;;;;10.43;6.53;;;;;;;;;;4946896;28;20049;-79
2023/05/02 06:31:59;;;;;;;8.73;5.95;;;;;;;;;;4952716;28;20038;-79
2023/05/02 06:34:25;;;;;;;10.32;6.15;;;;;;;;;;4925304;28;20047;-79
2023/05/02 06:36:55;;;;;;;2.13;1.85;;;;;;;;;;4921406;28;20057;-79
2023/05/02 06:39:21;;;;;;;13.80;8.57;;;;;;;;;;4933940;28;20202;-79
2023/05/02 06:41:47;;;;;;;11.95;7.72;;;;;;;;;;4945419;28;20400;-79
2023/05/02 06:44:13;;;;;;;10.00;6.43;;;;;;;;;;4946217;28;20046;-79
2023/05/02 06:46:38;;;;;;;6.15;3.65;;;;;;;;;;4927479;28;20112;-79
2023/05/02 06:49:03;;;;;;;4.10;2.58;;;;;;;;;;4951817;28;20046;-79
2023/05/02 06:51:30;;;;;;;8.05;5.15;;;;;;;;;;4955261;28;20034;-79
2023/05/02 06:53:56;;;;;;;5.22;3.03;;;;;;;;;;4951135;28;20046;-79
2023/05/02 06:56:22;;;;;;;9.93;6.97;;;;;;;;;;4920644;28;20042;-79
2023/05/02 06:58:48;;;;;;;12.25;7.88;;;;;;;;;;4935281;28;20043;-79
2023/05/02 07:01:13;;;;;;;9.00;5.10;;;;;;;;;;4936449;28;20050;-79
2023/05/02 07:03:39;;;;;;;7.68;5.10;;;;;;;;;;4934235;28;20035;-79
2023/05/02 07:06:04;;;;;;;7.10;4.25;;;;;;;;;;4943427;28;20035;-79
2023/05/02 07:08:29;;;;;;;6.72;4.88;;;;;;;;;;4949675;28;20031;-79
2023/05/02 07:10:55;;;;;;;7.80;5.07;;;;;;;;;;4949651;28;20129;-79
2023/05/02 07:13:20;;;;;;;9.82;6.43;;;;;;;;;;4953928;28;20815;-79
2023/05/02 07:15:45;;;;;;;7.70;3.97;;;;;;;;;;4930175;28;20042;-79
2023/05/02 07:18:11;;;;;;;8.70;5.57;;;;;;;;;;4959099;28;20042;-79
2023/05/02 07:20:37;;;;;;;5.22;3.65;;;;;;;;;;4950943;28;20181;-79
2023/05/02 07:23:03;;;;;;;11.15;7.72;;;;;;;;;;4949785;28;20039;-79
2023/05/02 07:25:28;;;;;;;6.85;3.55;;;;;;;;;;4934490;28;20039;-80
2023/05/02 07:27:53;;;;;;;4.03;2.50;;;;;;;;;;4951000;28;20060;-79
2023/05/02 07:30:19;;;;;;;11.50;6.82;;;;;;;;;;4930044;28;20436;-79
2023/05/02 07:32:44;;;;;;;6.25;4.13;;;;;;;;;;4950642;28;20053;-80
2023/05/02 07:35:10;;;;;;;7.70;4.82;;;;;;;;;;4937042;28;20042;-80
2023/05/02 07:37:35;;;;;;;6.63;5.32;;;;;;;;;;4948922;28;20034;-80
2023/05/02 07:40:02;;;;;;;8.27;6.00;;;;;;;;;;4949233;28;20056;-79
2023/05/02 07:42:30;;;;;;;7.95;5.85;;;;;;;;;;4946670;28;20047;-79
2023/05/02 07:44:57;;;;;;;8.10;5.93;;;;;;;;;;4900323;28;20051;-79
2023/05/02 07:47:22;;;;;;;13.80;8.73;;;;;;;;;;4929602;28;20550;-80
2023/05/02 07:49:55;;;;;;;8.70;4.47;;;;;;;;;;4949369;28;20039;-79
2023/05/02 07:52:21;;;;;;;12.55;7.93;;;;;;;;;;4950265;28;20035;-79
2023/05/02 07:54:50;;;;;;;11.65;7.72;;;;;;;;;;4945042;28;20175;-79
2023/05/02 07:57:16;;;;;;;10.35;6.43;;;;;;;;;;4922051;28;20031;-79
2023/05/02 07:59:41;;;;;;;8.07;4.75;;;;;;;;;;4930378;28;20295;-79
2023/05/02 08:02:07;;;;;;;14.45;9.52;;;;;;;;;;4946886;28;20583;-79
2023/05/02 08:04:33;;;;;;;6.35;4.18;;;;;;;;;;4940591;28;20047;-79
2023/05/02 08:06:59;;;;;;;12.75;9.23;;;;;;;;;;4944977;28;20162;-78
2023/05/02 08:09:25;;;;;;;11.45;8.68;;;;;;;;;;4950789;28;20042;-79
2023/05/02 08:11:50;;;;;;;5.32;4.10;;;;;;;;;;4931309;28;20043;-79
2023/05/02 08:14:16;;;;;;;13.27;8.93;;;;;;;;;;4942974;28;20522;-79
2023/05/02 08:16:41;;;;;;;10.45;7.82;;;;;;;;;;4944301;28;20074;-79
2023/05/02 08:19:07;;;;;;;13.23;9.88;;;;;;;;;;4953918;28;20447;-79
2023/05/02 08:21:33;;;;;;;12.57;8.75;;;;;;;;;;4959488;28;20170;-79
2023/05/02 08:23:59;;;;;;;6.13;4.10;;;;;;;;;;4944825;28;20496;-79
2023/05/02 08:26:24;;;;;;;4.57;3.97;;;;;;;;;;4918163;28;20048;-79
2023/05/02 08:28:50;;;;;;;5.10;4.25;;;;;;;;;;4951679;28;20042;-79
2023/05/02 08:31:16;;;;;;;7.20;4.35;;;;;;;;;;4949674;28;20071;-80
2023/05/02 08:33:42;;;;;;;7.95;6.57;;;;;;;;;;4952957;28;20519;-79
2023/05/02 08:36:15;;;;;;;7.43;5.68;;;;;;;;;;4930923;28;20038;-79
2023/05/02 08:38:42;;;;;;;6.13;4.43;;;;;;;;;;4931812;28;20046;-79
2023/05/02 08:41:10;;;;;;;6.22;5.20;;;;;;;;;;4956024;28;20102;-79
2023/05/02 08:43:37;;;;;;;12.55;8.63;;;;;;;;;;4942673;28;20038;-79
2023/05/02 08:46:06;;;;;;;13.07;7.78;;;;;;;;;;4925957;28;20529;-79
2023/05/02 08:48:34;;;;;;;4.65;3.25;;;;;;;;;;4937350;28;20037;-79
2023/05/02 08:51:02;;;;;;;4.63;2.70;;;;;;;;;;4927822;28;20524;-79
2023/05/02 08:53:31;;;;;;;2.60;2.17;;;;;;;;;;4934556;28;20099;-78
2023/05/02 08:55:57;;;;;;;3.28;2.72;;;;;;;;;;4936932;28;20038;-80
2023/05/02 08:58:22;;;;;;;2.55;1.83;;;;;;;;;;4943338;28;20512;-78
2023/05/02 09:00:50;;;;;;;2.45;2.03;;;;;;;;;;4945766;28;20053;-76
2023/05/02 09:03:30;;;;;;;3.30;2.25;;;;;;;;;;4942416;28;20485;-77
2023/05/02 09:06:02;;;;;;;3.85;2.67;;;;;;;;;;4890059;28;20043;-79
2023/05/02 09:08:27;;;;;;;1.52;1.42;;;;;;;;;;4950720;28;20074;-78
2023/05/02 09:10:53;;;;;;;1.33;1.23;;;;;;;;;;4953439;28;20039;-77
2023/05/02 09:13:38;;;;;;;2.70;2.03;;;;;;;;;;4952721;28;20578;-75
2023/05/02 09:16:09;;;;;;;3.53;2.20;;;;;;;;;;4917034;28;20050;-77
2023/05/02 09:18:45;;;;;;;5.82;3.75;;;;;;;;;;4951800;28;20535;-77
2023/05/02 09:21:13;;;;;;;3.92;2.13;;;;;;;;;;4955031;28;20050;-78
2023/05/02 09:23:44;;;;;;;4.80;2.50;;;;;;;;;;4951511;28;20045;-78
2023/05/02 09:26:13;;;;;;;3.42;1.85;;;;;;;;;;4927614;28;20070;-79
2023/05/02 09:28:41;;;;;;;2.50;1.73;;;;;;;;;;4915406;28;20035;-77
2023/05/02 09:31:08;;;;;;;2.33;1.80;;;;;;;;;;4939261;28;20060;-76
2023/05/02 09:33:34;;;;;;;2.80;1.52;;;;;;;;;;4956328;28;20043;-78
2023/05/02 09:35:59;;;;;;;1.55;1.40;;;;;;;;;;4938537;28;20113;-78
2023/05/02 09:38:25;;;;;;;1.40;1.30;;;;;;;;;;4952560;28;20093;-77
2023/05/02 09:40:57;;;;;;;1.30;1.20;;;;;;;;;;4941541;28;20042;-78
2023/05/02 09:43:22;;;;;;;1.83;1.45;;;;;;;;;;4930606;28;20087;-79
2023/05/02 09:46:07;;;;;;;1.05;0.90;;;;;;;;;;4939191;28;20503;-78
2023/05/02 09:48:50;;;;;;;2.30;1.85;;;;;;;;;;4954720;28;20406;-79
2023/05/02 09:51:17;;;;;;;1.58;1.33;;;;;;;;;;4952125;28;20038;-79
2023/05/02 09:53:44;;;;;;;2.05;1.70;;;;;;;;;;4929589;28;20138;-77
2023/05/02 09:56:09;;;;;;;0.80;0.80;;;;;;;;;;4929872;28;20031;-76
2023/05/02 09:58:35;;;;;;;1.48;1.38;;;;;;;;;;4958715;28;20118;-74
2023/05/02 10:01:00;;;;;;;1.30;0.93;;;;;;;;;;4951612;28;20042;-75
2023/05/02 10:03:26;;;;;;;1.40;1.30;;;;;;;;;;4955148;28;20619;-74
2023/05/02 10:05:53;;;;;;;2.13;1.48;;;;;;;;;;4908889;28;20119;-78
2023/05/02 10:08:20;;;;;;;1.80;1.30;;;;;;;;;;4955315;28;20062;-78
2023/05/02 10:10:56;;;;;;;1.10;0.93;;;;;;;;;;4946741;28;20047;-79
2023/05/02 10:13:26;;;;;;;6.53;3.08;;;;;;;;;;4938847;28;20053;-79
2023/05/02 10:16:03;;;;;;;2.17;1.63;;;;;;;;;;4936140;28;20472;-78
2023/05/02 10:18:32;;;;;;;1.60;1.50;;;;;;;;;;4910142;28;20067;-77
2023/05/02 10:21:03;;;;;;;0.82;0.80;;;;;;;;;;4952980;28;20130;-79
2023/05/02 10:23:28;;;;;;;1.33;1.23;;;;;;;;;;4949753;28;20042;-78
2023/05/02 10:25:56;;;;;;;5.03;1.85;;;;;;;;;;4922696;28;20046;-79
2023/05/02 10:28:22;;;;;;;1.70;0.88;;;;;;;;;;4940090;28;20107;-78
2023/05/02 10:30:54;;;;;;;2.20;1.15;;;;;;;;;;4920657;28;20054;-77
2023/05/02 10:33:47;;;;;;;1.45;1.35;;;;;;;;;;4960410;28;20056;-80
2023/05/02 10:36:13;;;;;;;1.98;1.70;;;;;;;;;;4919812;28;20039;-78
2023/05/02 10:38:40;;;;;;;1.48;1.38;;;;;;;;;;4931517;28;20421;-78
2023/05/02 10:41:14;;;;;;;3.42;1.60;;;;;;;;;;4951978;28;20031;-78
2023/05/02 10:43:45;;;;;;;2.20;1.50;;;;;;;;;;4911677;28;20066;-79
2023/05/02 10:46:29;;;;;;;;;;;;;;;;;;4926059;28;20109;-79
2023/05/02 10:49:07;;;;;;;2.63;2.40;;;;;;;;;;4946123;28;19937;-78
2023/05/02 10:51:35;;;;;;;2.55;1.88;;;;;;;;;;4954724;28;20038;-79
2023/05/02 10:54:20;;;;;;;2.90;2.13;;;;;;;;;;4935548;28;20034;-79
2023/05/02 10:57:05;;;;;;;7.95;3.10;;;;;;;;;;4953113;28;20027;-79
2023/05/02 10:59:43;;;;;;;3.00;2.22;;;;;;;;;;4951501;28;20185;-79
2023/05/02 11:02:22;;;;;;;3.70;2.47;;;;;;;;;;4959356;28;20042;-79
2023/05/02 11:05:01;;;;;;;3.22;1.95;;;;;;;;;;4911148;28;20147;-79
2023/05/02 11:07:27;;;;;;;2.97;2.45;;;;;;;;;;4956652;28;20113;-79
2023/05/02 11:09:52;;;;;;;5.57;2.63;;;;;;;;;;4960591;28;20404;-79
2023/05/02 11:12:47;;;;;;;3.75;2.10;;;;;;;;;;4951398;28;20112;-79
2023/05/02 11:15:37;;;;;;;3.47;1.63;;;;;;;;;;4902516;28;20048;-78
2023/05/02 11:18:13;;;;;;;4.03;2.03;;;;;;;;;;4939939;28;20043;-80
2023/05/02 11:20:40;;;;;;;4.80;2.10;;;;;;;;;;4948913;28;20214;-80
2023/05/02 11:23:14;;;;;;;3.72;2.88;;;;;;;;;;4955356;28;20542;-80
2023/05/02 11:25:45;;;;;;;4.78;2.72;;;;;;;;;;4921618;28;20046;-79
2023/05/02 11:28:33;;;;;;;5.07;2.60;;;;;;;;;;4953994;28;20129;-79
2023/05/02 11:30:58;;;;;;;5.80;3.13;;;;;;;;;;4951585;28;20050;-79
2023/05/02 11:33:24;;;;;;;1.45;1.33;;;;;;;;;;4950861;28;20105;-79
2023/05/02 11:35:49;;;;;;;7.82;3.33;;;;;;;;;;4915637;28;20510;-79
2023/05/02 11:38:17;;;;;;;3.72;1.98;;;;;;;;;;4950927;28;20734;-80
2023/05/02 11:40:55;;;;;;;2.65;1.83;;;;;;;;;;4946858;28;20529;-80
2023/05/02 11:43:22;;;;;;;4.50;2.92;;;;;;;;;;4950967;28;20035;-79
2023/05/02 11:45:47;;;;;;;1.75;1.60;;;;;;;;;;4937760;28;20038;-78
2023/05/02 11:48:16;;;;;;;7.55;3.45;;;;;;;;;;4951005;28;20055;-79
2023/05/02 11:50:46;;;;;;;7.95;3.13;;;;;;;;;;4919392;28;20039;-79
2023/05/02 11:53:16;;;;;;;5.40;2.63;;;;;;;;;;4941621;28;20046;-79
2023/05/02 11:55:54;;;;;;;4.07;1.97;;;;;;;;;;4919748;28;20098;-79
2023/05/02 11:58:21;;;;;;;2.95;1.58;;;;;;;;;;4945020;28;20117;-79
2023/05/02 12:00:48;;;;;;;6.15;2.88;;;;;;;;;;4940434;28;20085;-78
2023/05/02 12:03:30;;;;;;;5.32;2.10;;;;;;;;;;4945722;28;20049;-79
2023/05/02 12:05:57;;;;;;;6.45;2.95;;;;;;;;;;4932313;28;20038;-79
2023/05/02 12:08:27;;;;;;;7.82;3.40;;;;;;;;;;4944036;28;20074;-79
2023/05/02 12:10:54;;;;;;;2.97;2.33;;;;;;;;;;4947155;28;20039;-77
2023/05/02 12:13:23;;;;;;;2.67;1.88;;;;;;;;;;4927962;28;20039;-77
2023/05/02 12:15:50;;;;;;;4.82;3.33;;;;;;;;;;4919083;28;20069;-78
2023/05/02 12:18:16;;;;;;;3.13;2.35;;;;;;;;;;4937339;28;20133;-77
2023/05/02 12:20:44;;;;;;;4.47;2.20;;;;;;;;;;4947332;28;20050;-77
2023/05/02 12:23:10;;;;;;;3.75;2.10;;;;;;;;;;4944975;28;20043;-78
2023/05/02 12:25:40;;;;;;;4.38;2.40;;;;;;;;;;4945920;28;20038;-77
2023/05/02 12:28:06;;;;;;;4.72;2.17;;;;;;;;;;4890801;28;20060;-78
2023/05/02 12:30:32;;;;;;;4.47;3.35;;;;;;;;;;4949367;28;20113;-77
2023/05/02 12:33:00;;;;;;;3.92;2.33;;;;;;;;;;4947107;28;20606;-76
2023/05/02 12:35:27;;;;;;;3.65;2.00;;;;;;;;;;4941389;28;20039;-76
2023/05/02 12:37:56;;;;;;;4.72;2.83;;;;;;;;;;4949148;28;20531;-77
2023/05/02 12:40:21;;;;;;;6.07;3.50;;;;;;;;;;4913621;28;20078;-77
2023/05/02 12:43:05;;;;;;;8.82;3.17;;;;;;;;;;4950885;28;20063;-77
2023/05/02 12:45:33;;;;;;;4.55;2.72;;;;;;;;;;4930939;28;20047;-76
2023/05/02 12:48:00;;;;;;;3.45;2.50;;;;;;;;;;4942703;28;20043;-77
2023/05/02 12:50:37;;;;;;;6.82;3.67;;;;;;;;;;4947368;28;20051;-77
2023/05/02 12:53:03;;;;;;;6.05;2.83;;;;;;;;;;4911672;28;20155;-77
2023/05/02 12:55:30;;;;;;;10.02;4.15;;;;;;;;;;4922176;28;21176;-77
2023/05/02 12:58:08;;;;;;;4.20;2.17;;;;;;;;;;4919562;28;20046;-77
2023/05/02 13:00:37;;;;;;;5.32;2.92;;;;;;;;;;4947532;28;20066;-77
2023/05/02 13:03:02;;;;;;;8.48;4.38;;;;;;;;;;4946859;28;20056;-77
2023/05/02 13:05:28;;;;;;;5.20;4.07;;;;;;;;;;4920284;28;20052;-77
2023/05/02 13:07:55;;;;;;;7.63;3.00;;;;;;;;;;4939602;28;20432;-77
2023/05/02 13:10:21;;;;;;;5.55;3.83;;;;;;;;;;4932511;28;20050;-77
2023/05/02 13:12:47;;;;;;;7.07;2.92;;;;;;;;;;4946838;28;20173;-77
2023/05/02 13:15:13;;;;;;;10.32;4.72;;;;;;;;;;4946885;28;20129;-77
2023/05/02 13:17:38;;;;;;;8.95;3.20;;;;;;;;;;4937706;28;20504;-77
2023/05/02 13:20:05;;;;;;;11.35;4.78;;;;;;;;;;4930152;28;20049;-78
2023/05/02 13:22:30;;;;;;;6.75;4.15;;;;;;;;;;4947264;28;20047;-78
2023/05/02 13:24:56;;;;;;;8.32;3.95;;;;;;;;;;4929303;28;22051;-77
2023/05/02 13:27:22;;;;;;;6.93;3.72;;;;;;;;;;4945843;28;20129;-77
2023/05/02 13:29:48;;;;;;;8.27;4.50;;;;;;;;;;4935912;28;20585;-77
2023/05/02 13:32:14;;;;;;;7.93;4.72;;;;;;;;;;4934506;28;20050;-77
2023/05/02 13:34:39;;;;;;;9.63;5.28;;;;;;;;;;4936670;28;20143;-76
2023/05/02 13:37:05;;;;;;;7.53;5.07;;;;;;;;;;4944627;28;20137;-77
2023/05/02 13:39:30;;;;;;;8.27;5.00;;;;;;;;;;4953695;28;20034;-77
2023/05/02 13:41:55;;;;;;;8.55;4.75;;;;;;;;;;4957916;28;20092;-77
2023/05/02 13:44:21;;;;;;;6.97;4.35;;;;;;;;;;4923686;28;20081;-78
2023/05/02 13:46:46;;;;;;;8.50;3.67;;;;;;;;;;4929416;28;20042;-77
2023/05/02 13:49:12;;;;;;;3.38;2.50;;;;;;;;;;4948673;28;20049;-77
2023/05/02 13:51:38;;;;;;;5.80;3.80;;;;;;;;;;4946079;28;20059;-76
2023/05/02 13:54:03;;;;;;;12.50;5.75;;;;;;;;;;4944281;28;20038;-77
2023/05/02 13:56:29;;;;;;;5.95;3.70;;;;;;;;;;4941306;28;20125;-78
2023/05/02 13:58:54;;;;;;;8.00;4.22;;;;;;;;;;4944907;28;20038;-77
2023/05/02 14:01:20;;;;;;;9.82;4.70;;;;;;;;;;4914497;28;20523;-77
2023/05/02 14:03:45;;;;;;;8.90;6.00;;;;;;;;;;4956623;28;20753;-77
2023/05/02 14:06:10;;;;;;;9.05;4.85;;;;;;;;;;4930656;28;20038;-78
2023/05/02 14:08:36;;;;;;;7.30;5.13;;;;;;;;;;4951973;28;20069;-77
2023/05/02 14:11:01;;;;;;;8.13;4.47;;;;;;;;;;4953471;28;20035;-77
2023/05/02 14:13:27;;;;;;;7.20;3.40;;;;;;;;;;4956348;28;20038;-77
2023/05/02 14:15:53;;;;;;;8.00;3.70;;;;;;;;;;4918052;28;20580;-77
2023/05/02 14:18:18;;;;;;;5.63;3.25;;;;;;;;;;4951826;28;20141;-77
2023/05/02 14:20:44;;;;;;;8.93;4.32;;;;;;;;;;4955919;28;20034;-77
2023/05/02 14:23:09;;;;;;;9.05;5.07;;;;;;;;;;4954248;28;20528;-78
2023/05/02 14:25:36;;;;;;;8.43;4.97;;;;;;;;;;4928189;28;20043;-77
2023/05/02 14:28:01;;;;;;;7.15;4.70;;;;;;;;;;4944448;28;20109;-77
2023/05/02 14:30:27;;;;;;;7.60;4.00;;;;;;;;;;4930467;28;20051;-77
2023/05/02 14:32:53;;;;;;;6.72;3.75;;;;;;;;;;4950739;28;20124;-77
2023/05/02 14:35:18;;;;;;;7.55;3.97;;;;;;;;;;4946662;28;20050;-78
2023/05/02 14:37:44;;;;;;;7.50;4.35;;;;;;;;;;4951410;28;20112;-77
2023/05/02 14:40:11;;;;;;;7.78;5.28;;;;;;;;;;4931359;28;20077;-77
2023/05/02 14:42:36;;;;;;;8.23;4.75;;;;;;;;;;4918492;28;20030;-77
2023/05/02 14:45:02;;;;;;;6.63;4.35;;;;;;;;;;4926469;28;20146;-77
2023/05/02 14:47:29;;;;;;;10.43;4.65;;;;;;;;;;4937973;28;20125;-78
2023/05/02 14:49:55;;;;;;;6.78;3.97;;;;;;;;;;4943629;28;20045;-77